TimeCDT,TemperatureF,Dew PointF,Humidity,Sea Level PressureIn,VisibilityMPH,Wind Direction,Wind SpeedMPH,Gust SpeedMPH,PrecipitationIn,Events,Conditions,WindDirDegrees,DateUTC
12:53 AM,79.0,60.1,52,29.81,10.0,North,3.5,-,N/A,,Clear,360,2012-06-27 05:53:00
1:53 AM,78.1,60.1,54,29.80,10.0,North,3.5,-,N/A,,Clear,10,2012-06-27 06:53:00
2:53 AM,77.0,59.0,54,29.80,10.0,North,3.5,-,N/A,,Clear,360,2012-06-27 07:53:00
3:53 AM,69.1,61.0,75,29.81,10.0,South,3.5,-,N/A,,Clear,180,2012-06-27 08:53:00
4:53 AM,69.1,61.0,75,29.83,10.0,Calm,Calm,-,N/A,,Clear,0,2012-06-27 09:53:00
5:53 AM,68.0,61.0,78,29.85,10.0,Calm,Calm,-,N/A,,Clear,0,2012-06-27 10:53:00
6:53 AM,69.1,61.0,75,29.87,9.0,Calm,Calm,-,N/A,,Clear,0,2012-06-27 11:53:00
7:53 AM,79.0,60.1,52,29.89,10.0,East,3.5,-,N/A,,Clear,100,2012-06-27 12:53:00
8:53 AM,82.9,60.1,46,29.91,10.0,ESE,3.5,-,N/A,,Clear,110,2012-06-27 13:53:00
9:53 AM,88.0,62.1,42,29.91,10.0,ENE,3.5,-,N/A,,Clear,70,2012-06-27 14:53:00
10:53 AM,91.9,61.0,35,29.92,10.0,Variable,3.5,-,N/A,,Clear,0,2012-06-27 15:53:00
11:53 AM,97.0,57.9,27,29.93,10.0,Variable,5.8,-,N/A,,Clear,0,2012-06-27 16:53:00
12:53 PM,97.0,57.0,26,29.93,10.0,Variable,3.5,-,N/A,,Clear,0,2012-06-27 17:53:00
1:53 PM,98.1,55.9,24,29.92,10.0,Variable,3.5,-,N/A,,Clear,0,2012-06-27 18:53:00
2:53 PM,100.9,53.1,20,29.91,10.0,Variable,6.9,-,N/A,,Clear,0,2012-06-27 19:53:00
3:53 PM,100.9,52.0,19,29.91,10.0,Variable,5.8,-,N/A,,Clear,0,2012-06-27 20:53:00
4:53 PM,100.0,51.1,19,29.90,10.0,ESE,3.5,-,N/A,,Clear,110,2012-06-27 21:53:00
5:53 PM,100.0,52.0,20,29.89,10.0,SSW,5.8,-,N/A,,Clear,200,2012-06-27 22:53:00
6:53 PM,93.9,69.1,44,29.91,9.0,SSE,13.8,-,N/A,,Clear,160,2012-06-27 23:53:00
7:53 PM,90.0,71.1,54,29.93,9.0,South,11.5,-,N/A,,Clear,180,2012-06-28 00:53:00
8:53 PM,87.1,71.1,59,29.95,10.0,SSW,5.8,-,N/A,,Clear,200,2012-06-28 01:53:00
9:53 PM,84.9,75.0,72,29.97,10.0,SSW,6.9,-,N/A,,Clear,200,2012-06-28 02:53:00
10:53 PM,82.0,75.9,82,29.98,9.0,South,6.9,-,N/A,,Clear,170,2012-06-28 03:53:00
11:53 PM,81.0,77.0,88,29.99,7.0,SSE,3.5,-,N/A,,Clear,160,2012-06-28 04:53:00